Welcome to Flynqy Pilot Training

Lothar, Marshall and Zara flying together in the Robin DR400

Flynqy Pilot Training operates from Cornwall Airport Newquay, a regional airport with professional facilities and an all-weather runway. We're also lucky to have the stunning coastlines and landscapes of Cornwall and Devon as a backdrop for our flights.

We have a fleet of four training aircraft consisting of two Cessna 152's, a Robin DR400 and a Piper PA28. Our aircraft rates and course fees are highly competitive and our training results are impressive. All of our pilots are commercial pilots with full instructor ratings and many years of experience.

We offer a range of services, from initial flight experiences and starter sessions to Commercial Pilot Training. We also look after visiting general aviation pilots on behalf of the airport. We insist on absolute professionalism, best practice and rigorous flight standards... but we also try to have fun!

Flynqy Pilot Training is generally open seven days a week throughout the year, so please do give us a call or pop in and see us!

What our customers say

Weather Forecast

This Newquay Cornwall Airport weather forecast is generated by the Met Office Weather Widget

METAR

EGHQ 301720Z 23015KT 9999 FEW010 SCT020 15/13 Q1010

TAF

TAF EGHQ 301701Z 3018/3021 25014KT 9999 SCT015 BECMG 3018/3021 BKN014 TEMPO 3018/3021 7000 RA BKN009 PROB30 TEMPO 3018/3021 26017G27KT

Latest News